Time;durP1;ratioP1;P1;durP2;ratioP2;P2;SDS_P1;SDS_P2;PMS_P1;PMS_P2;Temp;Humidity;BMP_temperature;BMP_pressure;BME280_temperature;BME280_humidity;BME280_pressure;Samples;Min_cycle;Max_cycle;Signal;HPM_P1;HPM_P2
2023/08/19 00:01:23;;;;;;;5.63;5.07;;;23.60;99.90;;;;;;5025831;28;20490;-63
2023/08/19 00:03:51;;;;;;;9.03;5.90;;;23.50;99.90;;;;;;5028503;28;20522;-63
2023/08/19 00:06:38;;;;;;;11.30;6.10;;;23.50;99.90;;;;;;5017756;28;20577;-63
2023/08/19 00:09:07;;;;;;;22.80;6.10;;;23.40;99.90;;;;;;5003990;28;20530;-64
2023/08/19 00:11:34;;;;;;;13.67;7.00;;;23.40;99.90;;;;;;5025860;28;20707;-64
2023/08/19 00:14:03;;;;;;;13.83;6.30;;;23.30;99.90;;;;;;5025925;28;20549;-63
2023/08/19 00:16:30;;;;;;;7.57;5.60;;;23.10;99.90;;;;;;5027005;28;21334;-63
2023/08/19 00:18:57;;;;;;;9.33;4.67;;;23.10;99.90;;;;;;5027642;28;20510;-62
2023/08/19 00:21:24;;;;;;;9.07;5.40;;;23.10;99.90;;;;;;5025577;28;20468;-63
2023/08/19 00:23:54;;;;;;;16.37;6.00;;;23.10;99.90;;;;;;5026257;28;20480;-62
2023/08/19 00:26:21;;;;;;;10.67;6.07;;;23.10;99.90;;;;;;5027453;28;20482;-63
2023/08/19 00:28:47;;;;;;;8.80;6.63;;;23.00;99.90;;;;;;5027032;28;20672;-63
2023/08/19 00:31:14;;;;;;;14.17;6.27;;;23.00;99.90;;;;;;5024095;28;21052;-64
2023/08/19 00:33:41;;;;;;;9.87;5.97;;;22.90;99.90;;;;;;5032875;28;20511;-63
2023/08/19 00:36:08;;;;;;;10.57;6.43;;;22.90;99.90;;;;;;5030233;28;20457;-63
2023/08/19 00:38:35;;;;;;;10.87;6.40;;;22.80;99.90;;;;;;5028227;28;20806;-62
2023/08/19 00:41:04;;;;;;;12.73;6.13;;;22.60;99.90;;;;;;5030506;28;20443;-63
2023/08/19 00:43:31;;;;;;;16.17;6.03;;;22.60;99.90;;;;;;5031273;28;20454;-63
2023/08/19 00:45:58;;;;;;;13.83;6.20;;;;;;;;;;5030157;28;20463;-63
2023/08/19 00:48:26;;;;;;;11.47;5.77;;;22.50;99.90;;;;;;5029008;28;20529;-63
2023/08/19 00:50:54;;;;;;;15.43;6.17;;;22.50;99.90;;;;;;5028800;28;20482;-63
2023/08/19 00:53:21;;;;;;;10.50;5.10;;;22.50;99.90;;;;;;5029237;28;21267;-62
2023/08/19 00:55:49;;;;;;;8.17;4.57;;;22.50;99.90;;;;;;5030192;28;20944;-62
2023/08/19 00:58:19;;;;;;;5.83;4.57;;;22.50;99.90;;;;;;5030804;28;20594;-63
2023/08/19 01:00:47;;;;;;;10.40;4.93;;;22.50;99.90;;;;;;5029845;28;20489;-65
2023/08/19 01:03:14;;;;;;;11.50;5.23;;;22.40;99.90;;;;;;5169969;23;21617;-68
2023/08/19 01:05:47;;;;;;;9.23;5.20;;;22.50;99.90;;;;;;4948161;28;20490;-68
2023/08/19 01:08:21;;;;;;;11.17;5.37;;;22.50;99.90;;;;;;4958502;28;20485;-68
2023/08/19 01:10:54;;;;;;;6.57;5.37;;;22.50;99.90;;;;;;4946679;28;21132;-68
2023/08/19 01:13:28;;;;;;;6.23;4.23;;;22.50;99.90;;;;;;4951447;28;20578;-68
2023/08/19 01:16:00;;;;;;;7.13;5.77;;;22.50;99.90;;;;;;4950034;28;21296;-68
2023/08/19 01:18:27;;;;;;;6.53;5.03;;;22.50;99.90;;;;;;4952070;28;20488;-67
2023/08/19 01:20:55;;;;;;;5.37;4.80;;;22.50;99.90;;;;;;4963828;28;20546;-67
2023/08/19 01:23:30;;;;;;;6.90;4.97;;;22.40;99.90;;;;;;4949292;28;20506;-67
2023/08/19 01:25:59;;;;;;;6.83;5.23;;;22.40;99.90;;;;;;4952632;28;20849;-68
2023/08/19 01:28:26;;;;;;;8.33;5.20;;;22.40;99.90;;;;;;4946773;28;20480;-68
2023/08/19 01:30:53;;;;;;;8.00;5.33;;;22.40;99.90;;;;;;4947774;28;20468;-67
2023/08/19 01:33:21;;;;;;;11.60;5.83;;;22.30;99.90;;;;;;4947259;28;21044;-68
2023/08/19 01:36:04;;;;;;;6.53;4.50;;;22.30;99.90;;;;;;4949345;28;20586;-68
2023/08/19 01:38:35;;;;;;;13.10;5.70;;;;;;;;;;4941123;28;20897;-67
2023/08/19 01:41:05;;;;;;;9.33;6.70;;;22.20;99.90;;;;;;4970760;28;20506;-68
2023/08/19 01:43:33;;;;;;;9.43;4.90;;;22.20;99.90;;;;;;4948215;28;20468;-68
2023/08/19 01:46:00;;;;;;;11.30;5.47;;;22.10;99.90;;;;;;4949225;28;21572;-68
2023/08/19 01:48:27;;;;;;;15.90;5.40;;;22.10;99.90;;;;;;4950895;28;20491;-67
2023/08/19 01:50:54;;;;;;;10.57;5.70;;;22.00;99.90;;;;;;4946880;28;21025;-67
2023/08/19 01:53:21;;;;;;;7.07;5.93;;;22.00;99.90;;;;;;4948982;28;21030;-68
2023/08/19 01:55:48;;;;;;;9.60;5.17;;;22.00;99.90;;;;;;4942006;28;20465;-67
2023/08/19 01:58:15;;;;;;;9.50;5.20;;;22.00;99.90;;;;;;4957217;28;20996;-68
2023/08/19 02:00:42;;;;;;;11.40;5.47;;;22.00;99.90;;;;;;4948162;28;20541;-68
2023/08/19 02:03:09;;;;;;;9.47;5.00;;;22.00;99.90;;;;;;4938496;28;20487;-68
2023/08/19 02:05:36;;;;;;;7.70;4.43;;;21.90;99.90;;;;;;4949102;28;20508;-68
2023/08/19 02:08:03;;;;;;;4.60;4.20;;;21.90;99.90;;;;;;4951485;28;20590;-67
2023/08/19 02:10:29;;;;;;;12.33;4.70;;;21.80;99.90;;;;;;4948523;28;20505;-67
2023/08/19 02:12:56;;;;;;;8.50;4.57;;;21.80;99.90;;;;;;4949430;28;20481;-67
2023/08/19 02:15:25;;;;;;;8.03;5.80;;;21.70;99.90;;;;;;4948514;28;21116;-68
2023/08/19 02:17:51;;;;;;;5.90;4.70;;;21.70;99.90;;;;;;4941068;28;20556;-68
2023/08/19 02:20:18;;;;;;;9.13;4.63;;;21.70;99.90;;;;;;4952074;28;20840;-68
2023/08/19 02:22:45;;;;;;;5.70;3.97;;;21.60;99.90;;;;;;4940754;28;20489;-68
2023/08/19 02:25:12;;;;;;;4.73;4.10;;;21.60;99.90;;;;;;4932876;28;20480;-68
2023/08/19 02:27:39;;;;;;;6.37;4.47;;;21.60;99.90;;;;;;4941113;28;20494;-67
2023/08/19 02:30:07;;;;;;;6.07;4.30;;;21.60;99.90;;;;;;4937745;28;20858;-68
2023/08/19 02:32:35;;;;;;;5.87;4.70;;;21.60;99.90;;;;;;4952073;28;20572;-68
2023/08/19 02:35:03;;;;;;;10.40;4.83;;;21.60;99.90;;;;;;4934168;28;21082;-68
2023/08/19 02:37:29;;;;;;;4.40;3.70;;;21.60;99.90;;;;;;4938568;28;20522;-68
2023/08/19 02:39:56;;;;;;;4.07;3.67;;;21.60;99.90;;;;;;4941159;28;21284;-67
2023/08/19 02:42:23;;;;;;;6.70;5.47;;;21.40;99.90;;;;;;4937984;28;20533;-67
2023/08/19 02:44:50;;;;;;;11.20;4.90;;;21.30;99.90;;;;;;4936739;28;20938;-68
2023/08/19 02:47:17;;;;;;;12.63;6.90;;;21.30;99.90;;;;;;4938608;28;20468;-68
2023/08/19 02:49:46;;;;;;;6.83;6.17;;;21.30;99.90;;;;;;4947995;28;20569;-67
2023/08/19 02:52:13;;;;;;;10.30;5.50;;;21.30;99.90;;;;;;4953136;28;21230;-67
2023/08/19 02:54:40;;;;;;;13.03;5.20;;;21.30;99.90;;;;;;4956770;28;21050;-67
2023/08/19 02:57:07;;;;;;;5.70;4.80;;;;;;;;;;4938226;28;20480;-67
2023/08/19 02:59:34;;;;;;;6.43;4.33;;;21.30;99.90;;;;;;4944298;28;20490;-67
2023/08/19 03:02:00;;;;;;;7.60;4.37;;;21.30;99.90;;;;;;4934496;28;20493;-67
2023/08/19 03:04:27;;;;;;;7.53;4.50;;;21.20;99.90;;;;;;4962314;28;20491;-68
2023/08/19 03:06:57;;;;;;;26.07;6.23;;;21.30;99.90;;;;;;4948514;28;20567;-67
2023/08/19 03:09:25;;;;;;;20.53;6.90;;;21.30;99.90;;;;;;4936664;28;20521;-67
2023/08/19 03:11:51;;;;;;;7.97;6.80;;;21.30;99.90;;;;;;4939372;28;20515;-68
2023/08/19 03:14:18;;;;;;;12.83;6.03;;;21.30;99.90;;;;;;4935221;28;20562;-67
2023/08/19 03:16:45;;;;;;;12.73;5.73;;;21.30;99.90;;;;;;4938999;28;20514;-67
2023/08/19 03:19:14;;;;;;;18.03;5.90;;;21.30;99.90;;;;;;4940308;28;20521;-68
2023/08/19 03:21:41;;;;;;;8.53;5.50;;;21.30;99.90;;;;;;4941606;28;20632;-70
2023/08/19 03:24:10;;;;;;;10.93;5.93;;;21.10;99.90;;;;;;4938128;28;20831;-70
2023/08/19 03:26:37;;;;;;;14.93;6.17;;;;;;;;;;4939399;28;20510;-70
2023/08/19 03:29:04;;;;;;;13.20;6.47;;;20.90;99.90;;;;;;4939507;28;20489;-71
2023/08/19 03:31:31;;;;;;;12.73;6.13;;;20.70;99.90;;;;;;4939280;28;21066;-68
2023/08/19 03:33:58;;;;;;;17.20;5.90;;;20.60;99.90;;;;;;4936063;28;20480;-68
2023/08/19 03:36:25;;;;;;;7.97;5.77;;;20.60;99.90;;;;;;4952931;28;20897;-67
2023/08/19 03:38:52;;;;;;;15.00;6.90;;;20.60;99.90;;;;;;4935456;28;20558;-67
2023/08/19 03:41:20;;;;;;;20.33;5.80;;;20.60;99.90;;;;;;4942090;28;20612;-67
2023/08/19 03:43:47;;;;;;;5.60;4.50;;;20.60;99.90;;;;;;4938063;28;20556;-67
2023/08/19 03:46:14;;;;;;;10.63;5.20;;;20.50;99.90;;;;;;4935391;28;20483;-67
2023/08/19 03:48:41;;;;;;;7.67;5.30;;;20.60;99.90;;;;;;4938909;28;20573;-68
2023/08/19 03:51:07;;;;;;;9.33;5.43;;;20.60;99.90;;;;;;4943380;28;20492;-68
2023/08/19 03:53:34;;;;;;;6.43;5.10;;;20.60;99.90;;;;;;4946881;28;20581;-67
2023/08/19 03:56:01;;;;;;;9.80;5.00;;;20.60;99.90;;;;;;4936653;28;20488;-68
2023/08/19 03:58:29;;;;;;;9.27;5.50;;;20.60;99.90;;;;;;4924506;28;20483;-67
2023/08/19 04:01:04;;;;;;;8.97;5.50;;;20.70;99.90;;;;;;4995701;28;20594;-67
2023/08/19 04:03:31;;;;;;;9.83;4.90;;;20.70;99.90;;;;;;4942157;28;20513;-67
2023/08/19 04:05:58;;;;;;;6.40;5.03;;;20.70;99.90;;;;;;4934051;28;20599;-67
2023/08/19 04:08:25;;;;;;;13.43;5.50;;;20.70;99.90;;;;;;4952865;28;20476;-67
2023/08/19 04:10:52;;;;;;;14.97;5.77;;;20.70;99.90;;;;;;4937890;28;21235;-68
2023/08/19 04:13:19;;;;;;;19.80;6.10;;;20.60;99.90;;;;;;4940021;28;20929;-67
2023/08/19 04:15:47;;;;;;;9.77;6.40;;;20.50;99.90;;;;;;4937097;28;20567;-67
2023/08/19 04:18:15;;;;;;;13.10;6.80;;;20.30;99.90;;;;;;4943464;28;20598;-67
2023/08/19 04:20:42;;;;;;;10.27;6.37;;;20.30;99.90;;;;;;4945042;28;20500;-67
2023/08/19 04:23:09;;;;;;;11.67;7.07;;;20.30;99.90;;;;;;4950758;28;20903;-67
2023/08/19 04:25:36;;;;;;;8.50;6.90;;;20.30;99.90;;;;;;4938171;28;20609;-67
2023/08/19 04:28:03;;;;;;;8.87;4.33;;;20.40;99.90;;;;;;4941241;28;20944;-67
2023/08/19 04:30:30;;;;;;;9.77;5.33;;;;;;;;;;4940314;28;20570;-70
2023/08/19 04:33:00;;;;;;;9.40;4.93;;;20.50;99.90;;;;;;4938326;28;20479;-70
2023/08/19 04:35:28;;;;;;;6.40;4.43;;;20.60;99.90;;;;;;4939442;28;20548;-69
2023/08/19 04:37:55;;;;;;;7.57;4.70;;;20.70;99.90;;;;;;4953003;28;21290;-69
2023/08/19 04:40:22;;;;;;;5.70;4.33;;;20.80;99.90;;;;;;4966746;28;20486;-67
2023/08/19 04:42:49;;;;;;;6.77;4.90;;;20.80;99.90;;;;;;4941817;28;20472;-67
2023/08/19 04:45:17;;;;;;;7.50;5.23;;;20.70;99.90;;;;;;4960355;28;20485;-67
2023/08/19 04:47:44;;;;;;;5.87;5.27;;;20.80;99.90;;;;;;4938340;28;21016;-67
2023/08/19 04:50:12;;;;;;;10.93;6.10;;;20.70;99.90;;;;;;4966000;28;20598;-70
2023/08/19 04:52:39;;;;;;;6.60;5.43;;;20.60;99.90;;;;;;5027671;28;20573;-70
2023/08/19 04:55:06;;;;;;;7.33;4.60;;;20.40;99.90;;;;;;4939943;28;20566;-70
2023/08/19 04:57:33;;;;;;;6.60;4.27;;;20.40;99.90;;;;;;4937934;28;20483;-69
2023/08/19 05:00:00;;;;;;;8.47;4.50;;;20.40;99.90;;;;;;4941770;28;20891;-70
2023/08/19 05:02:27;;;;;;;8.37;5.97;;;20.40;99.90;;;;;;4950325;28;20569;-70
2023/08/19 05:04:54;;;;;;;4.20;3.80;;;20.40;99.90;;;;;;4945591;28;20669;-70
2023/08/19 05:07:22;;;;;;;16.23;5.80;;;20.40;99.90;;;;;;4948072;28;21029;-69
2023/08/19 05:09:49;;;;;;;17.83;6.23;;;20.50;99.90;;;;;;4942195;28;20603;-69
2023/08/19 05:12:16;;;;;;;14.67;7.37;;;20.50;99.90;;;;;;4939447;28;21118;-69
2023/08/19 05:15:14;;;;;;;12.30;7.13;;;20.60;99.90;;;;;;4935508;28;20494;-70
2023/08/19 05:17:41;;;;;;;13.50;7.13;;;20.60;99.90;;;;;;4947834;28;20568;-70
2023/08/19 05:20:09;;;;;;;22.20;6.67;;;20.60;99.90;;;;;;4945596;28;20848;-70
2023/08/19 05:22:37;;;;;;;8.20;5.77;;;20.60;99.90;;;;;;4936440;28;20533;-70
2023/08/19 05:25:05;;;;;;;12.57;6.63;;;20.60;99.90;;;;;;4938326;28;20482;-70
2023/08/19 05:27:32;;;;;;;12.13;7.30;;;20.70;99.90;;;;;;4937384;28;20519;-69
2023/08/19 05:29:59;;;;;;;8.50;6.27;;;20.70;99.90;;;;;;4935647;28;20623;-71
2023/08/19 05:32:26;;;;;;;9.73;6.93;;;20.70;99.90;;;;;;4946460;28;20499;-70
2023/08/19 05:34:53;;;;;;;14.17;7.77;;;20.70;99.90;;;;;;4942234;28;20584;-70
2023/08/19 05:37:20;;;;;;;8.57;6.50;;;20.80;99.90;;;;;;4937721;28;20832;-69
2023/08/19 05:39:49;;;;;;;7.40;6.10;;;20.80;99.90;;;;;;4953319;28;20492;-69
2023/08/19 05:42:16;;;;;;;8.37;6.77;;;20.90;99.90;;;;;;4939609;28;20495;-70
2023/08/19 05:44:43;;;;;;;8.20;6.70;;;21.00;99.90;;;;;;4954212;28;20494;-70
2023/08/19 05:47:10;;;;;;;7.77;6.40;;;;;;;;;;4939210;28;20487;-69
2023/08/19 05:49:37;;;;;;;7.93;6.80;;;21.00;99.90;;;;;;4949523;28;20559;-70
2023/08/19 05:52:04;;;;;;;9.10;7.47;;;21.10;99.90;;;;;;4941437;28;21058;-71
2023/08/19 05:54:31;;;;;;;6.60;5.43;;;21.20;99.90;;;;;;4938028;28;20483;-69
2023/08/19 05:56:59;;;;;;;9.67;6.63;;;21.30;99.90;;;;;;4939833;28;20482;-70
2023/08/19 05:59:26;;;;;;;9.53;6.13;;;21.40;99.90;;;;;;4936750;28;20726;-70
2023/08/19 06:01:53;;;;;;;8.60;6.33;;;21.60;99.90;;;;;;4943512;28;21390;-70
2023/08/19 06:04:20;;;;;;;9.23;6.17;;;21.60;99.90;;;;;;4943634;28;20935;-70
2023/08/19 06:06:47;;;;;;;6.97;6.27;;;21.80;99.90;;;;;;4937324;28;20508;-71
2023/08/19 06:09:14;;;;;;;8.97;7.20;;;21.80;99.90;;;;;;4937553;28;20481;-70
2023/08/19 06:11:48;;;;;;;8.03;6.60;;;21.90;99.90;;;;;;4942288;28;20502;-70
2023/08/19 06:14:17;;;;;;;10.67;6.73;;;22.00;99.90;;;;;;4939902;28;20493;-69
2023/08/19 06:16:45;;;;;;;7.60;6.57;;;22.10;99.90;;;;;;4936905;28;20549;-70
2023/08/19 06:19:12;;;;;;;10.00;7.80;;;22.20;99.90;;;;;;4944668;28;20772;-70
2023/08/19 06:21:39;;;;;;;7.83;6.83;;;22.30;99.90;;;;;;4940716;28;20818;-70
2023/08/19 06:24:07;;;;;;;8.17;6.90;;;22.50;99.90;;;;;;4935676;28;20814;-70
2023/08/19 06:26:34;;;;;;;11.10;6.50;;;22.60;99.90;;;;;;4940850;28;20684;-70
2023/08/19 06:29:01;;;;;;;11.40;8.23;;;22.70;99.90;;;;;;4955880;28;20514;-70
2023/08/19 06:31:30;;;;;;;8.07;7.10;;;22.90;99.90;;;;;;4941376;28;20464;-70
2023/08/19 06:33:57;;;;;;;9.73;6.33;;;23.00;99.90;;;;;;4944676;28;20501;-71
2023/08/19 06:36:28;;;;;;;11.80;6.40;;;23.10;99.90;;;;;;4937480;28;21048;-70
2023/08/19 06:39:03;;;;;;;9.30;7.57;;;23.10;99.90;;;;;;4937267;28;21111;-71
2023/08/19 06:41:34;;;;;;;7.67;6.87;;;23.30;99.90;;;;;;4941119;28;20478;-70
2023/08/19 06:44:03;;;;;;;8.60;6.30;;;23.40;99.90;;;;;;4938014;28;20695;-70
2023/08/19 06:46:32;;;;;;;7.90;7.10;;;23.50;99.90;;;;;;4935230;28;20464;-71
2023/08/19 06:48:59;;;;;;;6.80;6.10;;;23.50;99.90;;;;;;4940768;28;20818;-70
2023/08/19 06:51:27;;;;;;;7.47;6.70;;;23.70;99.90;;;;;;4938056;28;21188;-71
2023/08/19 06:53:55;;;;;;;6.90;5.90;;;23.80;99.90;;;;;;4940976;28;20985;-71
2023/08/19 06:56:26;;;;;;;13.60;6.40;;;23.90;99.90;;;;;;4935123;28;20496;-72
2023/08/19 06:59:00;;;;;;;6.43;5.70;;;24.00;99.90;;;;;;4938061;28;20598;-72
2023/08/19 07:01:32;;;;;;;8.03;5.87;;;24.00;99.90;;;;;;4942015;28;20578;-67
2023/08/19 07:04:00;;;;;;;7.33;6.63;;;24.10;99.90;;;;;;4938538;28;20478;-68
2023/08/19 07:06:31;;;;;;;6.70;6.10;;;24.30;99.90;;;;;;4935287;28;20867;-68
2023/08/19 07:08:58;;;;;;;7.20;6.50;;;24.30;99.90;;;;;;4940038;28;20492;-68
2023/08/19 07:11:26;;;;;;;12.93;7.10;;;24.40;99.90;;;;;;4939738;28;20490;-72
2023/08/19 07:13:53;;;;;;;7.80;7.07;;;24.60;99.90;;;;;;4935626;28;20932;-71
2023/08/19 07:16:23;;;;;;;7.57;6.87;;;24.70;99.90;;;;;;4938591;28;20809;-71
2023/08/19 07:18:55;;;;;;;9.40;7.53;;;24.70;99.90;;;;;;4939663;28;20831;-72
2023/08/19 07:21:24;;;;;;;9.43;6.33;;;25.00;99.90;;;;;;4933714;28;20455;-72
2023/08/19 07:23:55;;;;;;;9.77;7.67;;;25.10;99.90;;;;;;4965236;28;21174;-72
2023/08/19 07:26:26;;;;;;;10.80;7.67;;;25.20;99.90;;;;;;4935277;28;20497;-72
2023/08/19 07:28:54;;;;;;;7.47;6.37;;;25.20;99.90;;;;;;4935218;28;20466;-70
2023/08/19 07:31:22;;;;;;;9.20;6.73;;;25.40;99.90;;;;;;4940024;28;20487;-72
2023/08/19 07:33:51;;;;;;;10.87;7.40;;;25.50;99.90;;;;;;4936087;28;20482;-71
2023/08/19 07:36:18;;;;;;;7.50;6.30;;;25.70;99.90;;;;;;4937876;28;20525;-71
2023/08/19 07:38:46;;;;;;;26.93;7.97;;;25.90;99.90;;;;;;4938125;28;20471;-72
2023/08/19 07:41:14;;;;;;;10.60;8.70;;;25.90;99.90;;;;;;4935014;28;20456;-71
2023/08/19 07:43:41;;;;;;;8.10;6.80;;;26.00;99.90;;;;;;4950832;28;20564;-71
2023/08/19 07:46:08;;;;;;;9.00;7.60;;;26.20;99.90;;;;;;4955914;28;20562;-71
2023/08/19 07:48:35;;;;;;;9.63;6.17;;;26.30;99.90;;;;;;4933866;28;20494;-72
2023/08/19 07:51:03;;;;;;;7.30;6.10;;;26.40;99.90;;;;;;4970113;28;20586;-72
2023/08/19 07:53:30;;;;;;;7.00;6.07;;;26.50;99.90;;;;;;4937747;28;20472;-72
2023/08/19 07:55:57;;;;;;;7.97;6.10;;;26.70;99.90;;;;;;4936146;28;20999;-71
2023/08/19 07:58:24;;;;;;;8.70;6.80;;;26.70;99.90;;;;;;4934232;28;20922;-72
2023/08/19 08:00:51;;;;;;;8.23;6.90;;;26.70;99.90;;;;;;4939499;28;20799;-71
2023/08/19 08:03:18;;;;;;;7.33;5.93;;;26.80;99.90;;;;;;4950519;28;20466;-70
2023/08/19 08:05:45;;;;;;;10.30;6.30;;;27.00;99.90;;;;;;4939503;28;20490;-72
2023/08/19 08:08:13;;;;;;;12.57;7.67;;;27.10;99.90;;;;;;4937546;28;20704;-72
2023/08/19 08:10:41;;;;;;;7.90;7.03;;;27.10;99.90;;;;;;4937041;28;20552;-71
2023/08/19 08:13:08;;;;;;;8.13;7.17;;;27.20;99.90;;;;;;4939515;28;20483;-71
2023/08/19 08:15:35;;;;;;;23.50;7.50;;;27.30;99.90;;;;;;4940585;28;20462;-70
2023/08/19 08:18:01;;;;;;;8.17;6.87;;;27.30;99.90;;;;;;4936017;28;20482;-71
2023/08/19 08:20:29;;;;;;;9.20;6.90;;;27.40;99.90;;;;;;4944211;28;20454;-71
2023/08/19 08:22:56;;;;;;;7.90;7.20;;;27.80;99.90;;;;;;4937142;28;20562;-71
2023/08/19 08:25:24;;;;;;;12.27;7.23;;;28.00;99.90;;;;;;4944522;28;20565;-71
2023/08/19 08:27:51;;;;;;;9.93;7.63;;;28.20;99.90;;;;;;4938947;28;20985;-72
2023/08/19 08:30:18;;;;;;;9.83;7.33;;;28.40;99.90;;;;;;4934072;28;20485;-71
2023/08/19 08:32:45;;;;;;;7.23;6.53;;;28.60;99.90;;;;;;4948392;28;20465;-72
2023/08/19 08:35:12;;;;;;;13.53;5.70;;;28.40;99.90;;;;;;4946285;28;20467;-72
2023/08/19 08:37:38;;;;;;;7.60;6.37;;;28.20;99.90;;;;;;4935206;28;20732;-70
2023/08/19 08:40:07;;;;;;;17.73;5.80;;;28.10;99.90;;;;;;4935875;28;20458;-69
2023/08/19 08:42:36;;;;;;;9.27;5.40;;;28.00;99.60;;;;;;4938951;28;20460;-69
2023/08/19 08:45:03;;;;;;;7.33;5.70;;;;;;;;;;4973910;28;20501;-70
2023/08/19 08:47:31;;;;;;;7.00;5.60;;;27.90;99.60;;;;;;4973606;28;20877;-70
2023/08/19 08:49:59;;;;;;;7.33;6.10;;;27.80;99.00;;;;;;4945082;28;20754;-70
2023/08/19 08:52:26;;;;;;;13.33;6.13;;;27.90;98.90;;;;;;4938630;28;20454;-71
2023/08/19 08:54:53;;;;;;;12.60;6.20;;;27.90;99.90;;;;;;4939733;28;20447;-71
2023/08/19 08:57:21;;;;;;;8.70;5.30;;;27.80;99.30;;;;;;4942986;28;20471;-71
2023/08/19 08:59:49;;;;;;;6.73;6.00;;;27.80;99.10;;;;;;4936567;28;20503;-70
2023/08/19 09:02:18;;;;;;;12.30;7.27;;;27.90;99.30;;;;;;4944648;28;21209;-71
2023/08/19 09:04:47;;;;;;;8.07;5.80;;;28.10;99.80;;;;;;4950955;28;20466;-71
2023/08/19 09:07:26;;;;;;;10.27;5.57;;;28.10;98.90;;;;;;4939007;28;20468;-68
2023/08/19 09:09:55;;;;;;;9.67;5.83;;;28.10;99.30;;;;;;4937592;28;21841;-70
2023/08/19 09:12:22;;;;;;;12.13;6.13;;;;;;;;;;4939357;28;20468;-71
2023/08/19 09:14:56;;;;;;;8.07;5.70;;;28.10;98.50;;;;;;4937561;28;20430;-70
2023/08/19 09:17:23;;;;;;;6.57;5.80;;;28.20;99.20;;;;;;4939080;28;20556;-71
2023/08/19 09:19:50;;;;;;;6.47;5.80;;;28.30;98.80;;;;;;4948475;28;20891;-71
2023/08/19 09:22:22;;;;;;;9.87;6.10;;;28.30;98.60;;;;;;4936221;28;20580;-70
2023/08/19 09:24:49;;;;;;;15.67;6.07;;;28.50;98.50;;;;;;4940126;28;20624;-72
2023/08/19 09:27:24;;;;;;;8.50;5.83;;;28.70;99.50;;;;;;4935055;28;20486;-71
2023/08/19 09:29:52;;;;;;;12.17;6.00;;;28.80;99.20;;;;;;4942058;28;20917;-71
2023/08/19 09:32:28;;;;;;;6.53;5.83;;;29.00;99.00;;;;;;4941963;28;20494;-70
2023/08/19 09:35:03;;;;;;;11.70;6.57;;;29.10;98.10;;;;;;4947117;28;20474;-70
2023/08/19 09:37:30;;;;;;;10.97;5.97;;;29.30;98.10;;;;;;4939076;28;20561;-70
2023/08/19 09:39:57;;;;;;;17.30;5.90;;;29.20;97.50;;;;;;4939953;28;21009;-69
2023/08/19 09:42:24;;;;;;;6.73;5.90;;;29.30;97.90;;;;;;4961153;28;20556;-69
2023/08/19 09:44:53;;;;;;;10.73;6.37;;;;;;;;;;4940622;28;21162;-68
2023/08/19 09:47:20;;;;;;;7.97;6.43;;;28.90;97.70;;;;;;4938786;28;20462;-69
2023/08/19 09:49:52;;;;;;;15.30;7.07;;;28.80;98.90;;;;;;4948274;28;20642;-69
2023/08/19 09:52:19;;;;;;;9.17;6.03;;;28.70;98.90;;;;;;4938788;28;20483;-69
2023/08/19 09:54:52;;;;;;;14.93;6.40;;;28.60;97.80;;;;;;4946260;28;20677;-70
2023/08/19 09:57:19;;;;;;;7.80;6.30;;;28.50;97.70;;;;;;4952011;28;20527;-70
2023/08/19 09:59:47;;;;;;;6.20;5.57;;;28.50;98.30;;;;;;4936514;28;20487;-68
2023/08/19 10:02:17;;;;;;;7.90;5.80;;;28.40;97.60;;;;;;4942051;28;20932;-69
2023/08/19 10:04:44;;;;;;;18.70;6.47;;;28.30;98.40;;;;;;4937928;28;20488;-68
2023/08/19 10:07:14;;;;;;;8.33;6.67;;;28.30;98.30;;;;;;4955276;28;20892;-69
2023/08/19 10:09:41;;;;;;;8.53;5.70;;;28.30;98.90;;;;;;4955035;28;20800;-69
2023/08/19 10:12:10;;;;;;;11.50;6.73;;;28.30;99.20;;;;;;4939293;28;20469;-69
2023/08/19 10:14:39;;;;;;;13.80;6.37;;;28.20;97.70;;;;;;4944801;28;20559;-69
2023/08/19 10:17:07;;;;;;;13.63;7.00;;;28.20;97.80;;;;;;4952043;28;20569;-69
2023/08/19 10:19:40;;;;;;;7.40;5.90;;;28.20;98.30;;;;;;4942515;28;20486;-69
2023/08/19 10:22:08;;;;;;;11.93;6.57;;;;;;;;;;4931176;28;20479;-69
2023/08/19 10:24:37;;;;;;;14.53;6.47;;;28.20;98.50;;;;;;4937537;28;20882;-70
2023/08/19 10:27:03;;;;;;;19.17;7.57;;;28.10;97.80;;;;;;4943737;28;20500;-69
2023/08/19 10:29:30;;;;;;;8.43;6.10;;;28.20;98.90;;;;;;4936405;28;20846;-70
2023/08/19 10:31:57;;;;;;;8.67;6.00;;;28.20;98.30;;;;;;4945276;28;20862;-70
2023/08/19 10:34:26;;;;;;;11.63;7.03;;;28.10;99.40;;;;;;4939865;28;20582;-69
2023/08/19 10:37:07;;;;;;;9.10;7.27;;;28.10;98.50;;;;;;4938756;28;20915;-69
2023/08/19 10:39:35;;;;;;;12.53;6.37;;;28.10;99.60;;;;;;4949100;28;21025;-69
2023/08/19 10:42:02;;;;;;;10.73;6.70;;;;;;;;;;4942164;28;20499;-69
2023/08/19 10:44:33;;;;;;;13.80;7.10;;;28.00;98.40;;;;;;4942684;28;20627;-69
2023/08/19 10:47:09;;;;;;;11.47;7.10;;;28.10;99.60;;;;;;4939338;28;20483;-70
2023/08/19 10:49:36;;;;;;;9.17;5.77;;;28.10;99.00;;;;;;4948011;28;20596;-70
2023/08/19 10:52:05;;;;;;;9.30;5.90;;;28.20;98.90;;;;;;4942924;28;20506;-70
2023/08/19 10:54:38;;;;;;;9.87;7.77;;;28.10;98.60;;;;;;4933611;28;20491;-70
2023/08/19 10:57:10;;;;;;;9.50;7.23;;;28.10;99.60;;;;;;4995096;28;20467;-69
2023/08/19 10:59:39;;;;;;;10.10;7.10;;;28.10;99.90;;;;;;4926417;28;20479;-70
2023/08/19 11:02:08;;;;;;;7.90;6.27;;;;;;;;;;4940538;28;20559;-70
2023/08/19 11:04:37;;;;;;;9.13;6.67;;;28.10;99.30;;;;;;4939785;28;20921;-70
2023/08/19 11:07:07;;;;;;;8.73;6.90;;;28.00;99.90;;;;;;4935035;28;20604;-70
2023/08/19 11:09:35;;;;;;;9.43;6.40;;;28.00;99.80;;;;;;4937735;28;20456;-70
2023/08/19 11:12:03;;;;;;;7.50;6.70;;;28.00;99.90;;;;;;4937115;28;20530;-69
2023/08/19 11:14:31;;;;;;;8.27;6.23;;;28.00;99.90;;;;;;4933700;28;20492;-71
2023/08/19 11:16:58;;;;;;;14.13;6.60;;;;;;;;;;4933726;28;20888;-69
2023/08/19 11:19:26;;;;;;;7.90;7.10;;;28.00;99.40;;;;;;4944070;28;20458;-68
2023/08/19 11:21:54;;;;;;;9.23;6.60;;;;;;;;;;4939693;28;20811;-69
2023/08/19 11:24:20;;;;;;;10.57;6.90;;;28.00;99.90;;;;;;4933626;28;20549;-69
2023/08/19 11:26:49;;;;;;;8.63;6.20;;;27.90;99.70;;;;;;4937221;28;20837;-69
2023/08/19 11:29:16;;;;;;;9.87;6.70;;;28.00;99.90;;;;;;4936251;28;20492;-69
2023/08/19 11:31:44;;;;;;;15.40;7.20;;;27.90;99.80;;;;;;4940523;28;20466;-69
2023/08/19 11:34:12;;;;;;;12.60;6.70;;;27.90;99.90;;;;;;4932641;28;21012;-70
2023/08/19 11:36:40;;;;;;;7.23;6.50;;;27.90;99.90;;;;;;4969015;28;20475;-70
2023/08/19 11:39:08;;;;;;;16.57;6.83;;;28.00;99.90;;;;;;4937364;28;20469;-70
2023/08/19 11:41:35;;;;;;;10.20;7.00;;;28.00;99.90;;;;;;4935223;28;21004;-69
2023/08/19 11:44:04;;;;;;;12.37;7.03;;;28.00;99.90;;;;;;4955606;28;20456;-69
2023/08/19 11:46:32;;;;;;;8.80;7.07;;;28.00;99.90;;;;;;4942335;28;20486;-69
2023/08/19 11:49:01;;;;;;;12.30;6.70;;;;;;;;;;4944981;28;20686;-70
2023/08/19 11:51:28;;;;;;;18.43;6.40;;;28.20;99.90;;;;;;4945661;28;20826;-69
2023/08/19 11:53:56;;;;;;;15.17;6.83;;;;;;;;;;4935614;28;20492;-69
2023/08/19 11:56:23;;;;;;;9.03;6.27;;;28.20;99.90;;;;;;4935224;28;20969;-69
2023/08/19 11:58:51;;;;;;;9.87;7.17;;;28.30;99.90;;;;;;4932504;28;20589;-69
2023/08/19 12:01:20;;;;;;;10.00;7.10;;;;;;;;;;4954241;28;20587;-69
2023/08/19 12:03:48;;;;;;;13.37;6.70;;;28.40;99.90;;;;;;4898448;28;1130428;-69
2023/08/19 12:06:17;;;;;;;14.63;8.70;;;28.60;99.90;;;;;;4935304;28;20494;-69
2023/08/19 12:08:45;;;;;;;9.90;6.77;;;28.70;99.90;;;;;;4938863;28;20481;-69
2023/08/19 12:11:13;;;;;;;10.70;7.40;;;28.80;99.90;;;;;;4936819;28;20498;-69
2023/08/19 12:13:40;;;;;;;19.77;7.43;;;28.90;99.90;;;;;;4930384;28;20522;-69
2023/08/19 12:16:08;;;;;;;16.43;7.70;;;28.70;99.90;;;;;;4962007;28;20933;-69
2023/08/19 12:18:36;;;;;;;11.23;6.93;;;28.90;99.90;;;;;;4945100;28;20503;-69
2023/08/19 12:21:04;;;;;;;12.50;7.80;;;29.00;99.90;;;;;;4943542;28;20906;-69
2023/08/19 12:23:31;;;;;;;23.23;8.60;;;29.10;99.90;;;;;;4935312;28;20833;-69
2023/08/19 12:26:00;;;;;;;26.67;8.73;;;29.20;99.90;;;;;;4926622;28;20541;-69
2023/08/19 12:28:28;;;;;;;10.60;8.03;;;29.40;99.90;;;;;;4968845;28;20468;-69
2023/08/19 12:30:55;;;;;;;9.67;7.50;;;29.30;99.90;;;;;;4947999;28;20483;-69
2023/08/19 12:33:23;;;;;;;24.87;8.33;;;;;;;;;;4955312;28;20480;-69
2023/08/19 12:35:52;;;;;;;14.40;7.47;;;29.40;99.90;;;;;;4941103;28;20502;-69
2023/08/19 12:38:20;;;;;;;12.40;8.20;;;29.40;99.90;;;;;;4926278;28;20560;-69
2023/08/19 12:40:48;;;;;;;11.60;7.30;;;29.60;99.90;;;;;;4957213;28;21383;-69
2023/08/19 12:43:15;;;;;;;14.53;7.20;;;29.80;99.90;;;;;;4940650;28;20502;-69
2023/08/19 12:45:43;;;;;;;11.87;8.20;;;29.90;99.90;;;;;;4938317;28;20495;-69
2023/08/19 12:48:10;;;;;;;11.70;7.97;;;30.20;99.60;;;;;;4942377;28;20471;-68
2023/08/19 12:50:37;;;;;;;12.07;7.80;;;30.30;99.50;;;;;;4951691;28;20480;-69
2023/08/19 12:53:06;;;;;;;13.63;8.80;;;30.40;99.30;;;;;;4952864;28;20494;-69